Time;durP1;ratioP1;P1;durP2;ratioP2;P2;SDS_P1;SDS_P2;PMS_P1;PMS_P2;Temp;Humidity;BMP_temperature;BMP_pressure;BME280_temperature;BME280_humidity;BME280_pressure;Samples;Min_cycle;Max_cycle;Signal;HPM_P1;HPM_P2
2022/03/16 00:02:20;;;;;;;24.80;18.23;;;9.70;1.00;;;;;;5067732;28;20227;-63
2022/03/16 00:04:53;;;;;;;25.53;18.33;;;9.80;1.00;;;;;;5065610;28;20321;-64
2022/03/16 00:07:19;;;;;;;26.10;17.63;;;9.80;1.00;;;;;;5069510;28;20808;-64
2022/03/16 00:09:45;;;;;;;23.57;17.10;;;9.80;1.00;;;;;;5070334;28;20440;-63
2022/03/16 00:12:12;;;;;;;28.83;18.40;;;9.80;1.00;;;;;;5071436;28;20433;-62
2022/03/16 00:14:38;;;;;;;24.10;16.53;;;9.80;1.00;;;;;;5069567;28;20472;-64
2022/03/16 00:17:04;;;;;;;24.70;17.67;;;9.90;1.00;;;;;;5070420;28;20441;-62
2022/03/16 00:19:30;;;;;;;28.10;18.70;;;9.90;1.00;;;;;;5068967;28;20456;-62
2022/03/16 00:22:00;;;;;;;27.17;18.50;;;9.60;1.00;;;;;;5065918;28;20512;-62
2022/03/16 00:24:26;;;;;;;29.90;19.03;;;9.60;1.00;;;;;;5044929;28;20446;-65
2022/03/16 00:26:52;;;;;;;24.70;18.77;;;9.60;1.00;;;;;;5069533;28;20442;-63
2022/03/16 00:29:17;;;;;;;26.83;18.90;;;9.80;1.00;;;;;;5063466;28;20191;-63
2022/03/16 00:31:43;;;;;;;29.87;20.63;;;9.60;1.00;;;;;;5069103;28;20183;-61
2022/03/16 00:34:09;;;;;;;27.73;19.37;;;9.60;1.00;;;;;;5066282;28;20542;-63
2022/03/16 00:36:34;;;;;;;32.93;19.87;;;9.60;1.00;;;;;;5067820;28;20193;-63
2022/03/16 00:39:00;;;;;;;28.50;19.17;;;9.50;1.00;;;;;;5065328;28;20535;-65
2022/03/16 00:41:27;;;;;;;30.00;21.30;;;9.40;1.00;;;;;;5065252;28;20183;-63
2022/03/16 00:43:53;;;;;;;32.83;20.37;;;9.50;1.00;;;;;;5065338;28;20260;-63
2022/03/16 00:46:18;;;;;;;31.40;21.40;;;9.50;1.00;;;;;;5069148;28;20449;-64
2022/03/16 00:48:44;;;;;;;26.90;20.40;;;9.40;1.00;;;;;;5066552;28;20446;-63
2022/03/16 00:51:10;;;;;;;28.93;20.40;;;9.30;1.00;;;;;;5065390;28;20675;-63
2022/03/16 00:53:38;;;;;;;29.50;21.03;;;9.30;1.00;;;;;;5065811;28;20455;-63
2022/03/16 00:56:08;;;;;;;29.00;20.30;;;9.30;1.00;;;;;;5067637;28;20966;-63
2022/03/16 00:58:34;;;;;;;27.60;19.47;;;9.30;1.00;;;;;;5067514;28;20502;-65
2022/03/16 01:01:00;;;;;;;30.57;21.00;;;9.20;1.00;;;;;;5068422;28;20450;-64
2022/03/16 01:03:27;;;;;;;29.63;20.43;;;9.20;1.00;;;;;;5066463;28;20505;-63
2022/03/16 01:05:52;;;;;;;30.43;21.80;;;9.30;1.00;;;;;;5067089;28;20528;-63
2022/03/16 01:08:18;;;;;;;31.10;20.20;;;9.20;1.00;;;;;;5064658;28;21025;-65
2022/03/16 01:10:44;;;;;;;31.57;20.63;;;9.30;1.00;;;;;;5062999;28;20694;-63
2022/03/16 01:13:09;;;;;;;30.03;20.00;;;9.40;1.00;;;;;;5069286;28;20206;-64
2022/03/16 01:15:35;;;;;;;28.07;19.10;;;9.20;1.00;;;;;;5050847;28;20725;-64
2022/03/16 01:18:00;;;;;;;26.37;20.00;;;9.30;1.00;;;;;;5071421;28;20183;-64
2022/03/16 01:20:26;;;;;;;25.93;18.40;;;9.20;1.00;;;;;;5073141;28;20179;-62
2022/03/16 01:22:51;;;;;;;26.27;18.43;;;9.10;1.00;;;;;;5066576;28;20252;-64
2022/03/16 01:25:17;;;;;;;27.30;17.90;;;9.20;1.00;;;;;;5068074;28;20249;-63
2022/03/16 01:27:43;;;;;;;28.20;18.63;;;9.20;1.00;;;;;;5067007;28;20195;-62
2022/03/16 01:30:08;;;;;;;22.13;16.77;;;9.20;1.00;;;;;;5063416;28;20183;-63
2022/03/16 01:32:34;;;;;;;27.17;18.63;;;9.20;1.00;;;;;;5065363;28;20198;-63
2022/03/16 01:35:00;;;;;;;23.20;17.10;;;9.10;1.00;;;;;;5065935;28;20539;-63
2022/03/16 01:37:26;;;;;;;25.00;18.27;;;9.10;1.00;;;;;;5066302;28;20872;-63
2022/03/16 01:39:51;;;;;;;28.87;19.47;;;9.10;1.00;;;;;;5065518;28;20192;-64
2022/03/16 01:42:17;;;;;;;22.50;16.97;;;9.10;1.00;;;;;;5064184;28;20753;-61
2022/03/16 01:44:44;;;;;;;29.10;19.77;;;9.10;1.00;;;;;;5065830;28;20175;-62
2022/03/16 01:47:11;;;;;;;27.33;18.80;;;9.20;1.00;;;;;;5063622;28;20191;-63
2022/03/16 01:49:36;;;;;;;27.50;18.57;;;9.20;1.00;;;;;;5064678;28;20456;-61
2022/03/16 01:52:03;;;;;;;32.40;20.37;;;9.20;1.00;;;;;;5064551;28;20510;-63
2022/03/16 01:54:29;;;;;;;30.93;19.50;;;9.20;1.00;;;;;;5063633;28;20573;-63
2022/03/16 01:56:54;;;;;;;29.17;20.10;;;9.20;1.00;;;;;;5063496;28;20445;-62
2022/03/16 01:59:20;;;;;;;29.20;19.53;;;9.20;1.00;;;;;;5063971;28;20275;-63
2022/03/16 02:01:45;;;;;;;34.00;20.07;;;9.20;1.00;;;;;;5067071;28;20231;-62
2022/03/16 02:04:11;;;;;;;25.50;18.60;;;9.00;1.00;;;;;;5063007;28;20187;-63
2022/03/16 02:06:37;;;;;;;30.53;19.33;;;9.00;1.00;;;;;;5066347;28;20219;-63
2022/03/16 02:09:02;;;;;;;29.47;19.33;;;9.00;1.00;;;;;;5067873;28;20191;-64
2022/03/16 02:11:28;;;;;;;33.03;19.40;;;8.90;1.00;;;;;;5069773;28;20196;-63
2022/03/16 02:13:53;;;;;;;27.80;18.10;;;9.00;1.00;;;;;;5066530;28;20199;-63
2022/03/16 02:16:19;;;;;;;29.10;19.93;;;8.90;1.00;;;;;;5046234;28;20180;-63
2022/03/16 02:18:45;;;;;;;29.50;18.63;;;8.80;1.00;;;;;;5064993;28;20183;-61
2022/03/16 02:21:12;;;;;;;30.13;19.17;;;8.80;1.00;;;;;;5066971;28;20660;-62
2022/03/16 02:23:38;;;;;;;27.53;17.77;;;8.80;1.00;;;;;;5059358;28;21735;-63
2022/03/16 02:26:06;;;;;;;29.40;17.93;;;8.80;1.00;;;;;;5066389;28;20446;-62
2022/03/16 02:28:32;;;;;;;24.23;17.80;;;8.90;1.00;;;;;;5067175;28;20241;-62
2022/03/16 02:30:59;;;;;;;25.90;18.90;;;8.90;1.00;;;;;;5070436;28;20442;-62
2022/03/16 02:33:25;;;;;;;24.10;17.30;;;8.90;1.00;;;;;;5071327;28;20180;-63
2022/03/16 02:35:51;;;;;;;30.93;19.23;;;8.90;1.00;;;;;;5067484;28;20537;-62
2022/03/16 02:38:17;;;;;;;27.67;19.67;;;8.90;1.00;;;;;;5070373;28;20560;-63
2022/03/16 02:40:43;;;;;;;33.90;19.00;;;9.00;1.00;;;;;;5051612;28;20195;-63
2022/03/16 02:43:08;;;;;;;33.07;19.27;;;8.90;1.00;;;;;;5069836;28;20192;-64
2022/03/16 02:45:34;;;;;;;30.87;19.03;;;9.00;1.00;;;;;;5052194;28;20199;-62
2022/03/16 02:47:59;;;;;;;30.10;18.73;;;9.40;1.00;;;;;;5069106;28;20464;-63
2022/03/16 02:50:25;;;;;;;25.57;17.60;;;9.00;1.00;;;;;;5050165;28;20191;-63
2022/03/16 02:52:51;;;;;;;27.10;18.53;;;8.90;1.00;;;;;;5071800;28;20359;-63
2022/03/16 02:55:17;;;;;;;27.57;17.00;;;8.90;1.00;;;;;;5070362;28;20475;-62
2022/03/16 02:57:43;;;;;;;24.10;17.00;;;8.80;1.00;;;;;;5070223;28;20925;-62
2022/03/16 03:00:09;;;;;;;25.97;18.43;;;8.90;1.00;;;;;;5069796;28;20179;-63
2022/03/16 03:02:35;;;;;;;25.33;18.10;;;8.80;1.00;;;;;;5070699;28;20231;-63
2022/03/16 03:05:01;;;;;;;27.80;18.23;;;8.80;1.00;;;;;;5069664;28;20449;-63
2022/03/16 03:07:27;;;;;;;24.70;18.67;;;8.80;1.00;;;;;;5071547;28;20521;-63
2022/03/16 03:09:52;;;;;;;28.87;20.03;;;8.80;1.00;;;;;;5067834;28;20253;-62
2022/03/16 03:12:18;;;;;;;29.33;18.33;;;8.60;1.00;;;;;;5068763;28;20191;-62
2022/03/16 03:14:43;;;;;;;30.57;18.00;;;8.60;1.00;;;;;;5068152;28;20216;-63
2022/03/16 03:17:09;;;;;;;22.90;17.27;;;8.60;1.00;;;;;;5067278;28;20187;-63
2022/03/16 03:19:35;;;;;;;28.07;18.23;;;8.70;1.00;;;;;;5065161;28;20184;-63
2022/03/16 03:22:01;;;;;;;24.57;16.80;;;8.50;1.00;;;;;;5063130;28;20191;-62
2022/03/16 03:24:26;;;;;;;26.57;18.00;;;8.60;1.00;;;;;;5043802;28;20238;-64
2022/03/16 03:26:52;;;;;;;32.03;18.53;;;8.70;1.00;;;;;;5066527;28;20211;-64
2022/03/16 03:29:18;;;;;;;29.13;17.57;;;8.80;1.00;;;;;;5069139;28;20187;-64
2022/03/16 03:31:43;;;;;;;28.90;18.00;;;8.80;1.00;;;;;;5070352;28;20195;-63
2022/03/16 03:34:09;;;;;;;28.13;18.13;;;8.90;1.00;;;;;;5068098;28;20199;-63
2022/03/16 03:36:35;;;;;;;25.70;17.13;;;8.80;1.00;;;;;;5068331;28;20291;-63
2022/03/16 03:39:00;;;;;;;26.87;17.50;;;8.80;1.00;;;;;;5070121;28;20188;-63
2022/03/16 03:41:26;;;;;;;25.87;17.43;;;8.80;1.00;;;;;;5070602;28;20521;-63
2022/03/16 03:43:51;;;;;;;25.33;18.20;;;8.80;1.00;;;;;;5070269;28;20299;-63
2022/03/16 03:46:17;;;;;;;25.63;16.47;;;8.80;1.00;;;;;;5069270;28;20217;-63
2022/03/16 03:48:43;;;;;;;26.57;17.37;;;8.70;1.00;;;;;;5071707;28;20187;-62
2022/03/16 03:51:08;;;;;;;27.33;19.23;;;8.70;1.00;;;;;;5071797;28;20187;-61
2022/03/16 03:53:34;;;;;;;27.40;19.50;;;8.70;1.00;;;;;;5067341;28;20195;-62
2022/03/16 03:56:00;;;;;;;30.37;19.70;;;8.80;1.00;;;;;;5069412;28;20606;-63
2022/03/16 03:58:25;;;;;;;32.87;20.83;;;6.90;1.00;;;;;;5069077;28;20245;-63
2022/03/16 04:00:51;;;;;;;26.03;17.37;;;8.70;1.00;;;;;;5063964;28;20641;-62
2022/03/16 04:03:16;;;;;;;28.80;17.97;;;9.50;1.00;;;;;;5068384;28;20233;-63
2022/03/16 04:05:42;;;;;;;27.03;18.83;;;8.60;1.00;;;;;;5068588;28;20214;-62
2022/03/16 04:08:08;;;;;;;22.47;15.60;;;8.60;1.00;;;;;;5050336;28;20222;-62
2022/03/16 04:10:36;;;;;;;32.50;17.67;;;8.60;1.00;;;;;;5068724;28;20233;-63
2022/03/16 04:13:02;;;;;;;22.50;17.10;;;8.60;1.00;;;;;;5069079;28;20525;-63
2022/03/16 04:15:28;;;;;;;30.10;18.60;;;8.60;1.00;;;;;;5067988;28;20483;-62
2022/03/16 04:17:53;;;;;;;28.57;17.30;;;8.60;1.00;;;;;;5067811;28;20454;-62
2022/03/16 04:20:19;;;;;;;29.13;18.50;;;8.70;1.00;;;;;;5067522;28;20308;-62
2022/03/16 04:22:45;;;;;;;28.50;18.50;;;8.80;1.00;;;;;;5068164;28;20183;-62
2022/03/16 04:25:10;;;;;;;26.60;16.40;;;8.70;1.00;;;;;;5069080;28;20190;-64
2022/03/16 04:27:36;;;;;;;32.93;18.37;;;8.70;1.00;;;;;;5065631;28;20191;-64
2022/03/16 04:30:01;;;;;;;25.57;16.20;;;8.60;1.00;;;;;;5064559;28;20203;-63
2022/03/16 04:32:27;;;;;;;22.70;15.87;;;8.60;1.00;;;;;;5049182;28;20195;-64
2022/03/16 04:34:52;;;;;;;27.27;16.10;;;8.60;1.00;;;;;;5068609;28;20229;-62
2022/03/16 04:37:19;;;;;;;26.30;17.70;;;8.50;1.00;;;;;;5068305;28;20186;-63
2022/03/16 04:39:45;;;;;;;27.10;17.27;;;8.60;1.00;;;;;;5067588;28;20191;-63
2022/03/16 04:42:10;;;;;;;25.80;16.90;;;8.60;1.00;;;;;;5067324;28;20436;-62
2022/03/16 04:44:36;;;;;;;28.13;16.90;;;;;;;;;;5071533;28;20267;-62
2022/03/16 04:47:02;;;;;;;26.33;17.13;;;8.60;1.00;;;;;;5070870;28;20195;-62
2022/03/16 04:49:28;;;;;;;25.30;17.07;;;;;;;;;;5068200;28;21011;-60
2022/03/16 04:51:53;;;;;;;26.90;18.37;;;8.70;1.00;;;;;;5069370;28;20183;-64
2022/03/16 04:54:19;;;;;;;26.50;17.33;;;8.80;1.00;;;;;;5070597;28;20466;-64
2022/03/16 04:56:44;;;;;;;27.83;17.30;;;8.80;1.00;;;;;;5069760;28;20179;-63
2022/03/16 04:59:10;;;;;;;28.27;16.37;;;8.70;1.00;;;;;;5069244;28;20184;-63
2022/03/16 05:01:35;;;;;;;27.40;17.37;;;8.70;1.00;;;;;;5068625;28;20215;-64
2022/03/16 05:04:01;;;;;;;25.63;17.30;;;8.70;1.00;;;;;;5068419;28;20233;-64
2022/03/16 05:06:27;;;;;;;31.63;17.20;;;8.60;1.00;;;;;;5069555;28;20186;-64
2022/03/16 05:08:52;;;;;;;29.07;16.87;;;8.60;1.00;;;;;;5070160;28;20812;-64
2022/03/16 05:11:22;;;;;;;25.27;17.43;;;8.60;1.00;;;;;;5071276;28;20221;-64
2022/03/16 05:13:49;;;;;;;30.03;17.60;;;8.60;1.00;;;;;;5051609;28;20179;-64
2022/03/16 05:16:15;;;;;;;29.10;18.30;;;8.60;1.00;;;;;;5069807;28;20810;-62
2022/03/16 05:18:43;;;;;;;30.90;17.80;;;8.60;1.00;;;;;;5068405;28;20446;-63
2022/03/16 05:21:08;;;;;;;25.37;16.87;;;8.60;1.00;;;;;;5071136;28;20462;-61
2022/03/16 05:23:36;;;;;;;24.00;17.10;;;8.60;1.00;;;;;;5070102;28;20440;-62
2022/03/16 05:26:05;;;;;;;21.80;16.07;;;8.60;1.00;;;;;;5068847;28;20710;-61
2022/03/16 05:28:30;;;;;;;27.90;18.70;;;8.60;1.00;;;;;;5068040;28;20522;-60
2022/03/16 05:30:56;;;;;;;26.20;17.37;;;8.70;1.00;;;;;;5066806;28;20438;-61
2022/03/16 05:33:23;;;;;;;25.07;17.10;;;8.60;1.00;;;;;;5069376;28;20198;-60
2022/03/16 05:35:49;;;;;;;25.73;16.80;;;8.60;1.00;;;;;;5069877;28;20465;-58
2022/03/16 05:38:15;;;;;;;27.57;18.47;;;8.50;1.00;;;;;;5069334;28;21170;-60
2022/03/16 05:40:42;;;;;;;26.53;17.07;;;8.40;1.00;;;;;;5070128;28;20441;-60
2022/03/16 05:43:09;;;;;;;28.57;16.80;;;8.40;1.00;;;;;;5067829;28;20586;-59
2022/03/16 05:45:35;;;;;;;27.10;18.07;;;8.10;1.00;;;;;;5067513;28;20444;-58
2022/03/16 05:48:00;;;;;;;26.97;16.87;;;8.50;1.00;;;;;;5065844;28;20465;-59
2022/03/16 05:50:28;;;;;;;24.37;17.20;;;8.50;1.00;;;;;;5068139;28;20445;-58
2022/03/16 05:52:59;;;;;;;25.90;17.83;;;8.50;1.00;;;;;;5071383;28;20188;-58
2022/03/16 05:55:25;;;;;;;25.10;16.93;;;8.50;1.00;;;;;;5069773;28;20476;-59
2022/03/16 05:57:50;;;;;;;25.50;17.30;;;8.60;1.00;;;;;;5069102;28;20441;-59
2022/03/16 06:00:18;;;;;;;27.43;18.20;;;8.70;1.00;;;;;;5068150;28;20791;-60
2022/03/16 06:02:44;;;;;;;25.33;17.50;;;8.70;1.00;;;;;;5072397;28;20225;-58
2022/03/16 06:05:10;;;;;;;25.80;17.33;;;8.70;1.00;;;;;;5076475;28;20841;-59
2022/03/16 06:07:39;;;;;;;26.63;17.13;;;8.80;1.00;;;;;;5072958;28;20524;-59
2022/03/16 06:10:07;;;;;;;22.90;16.37;;;8.80;1.00;;;;;;5072540;28;20458;-58
2022/03/16 06:12:32;;;;;;;25.30;17.67;;;8.90;1.00;;;;;;5070980;28;20536;-59
2022/03/16 06:14:58;;;;;;;25.03;19.10;;;8.90;1.00;;;;;;5072919;28;20572;-59
2022/03/16 06:17:23;;;;;;;25.10;17.30;;;8.90;1.00;;;;;;5071993;28;20188;-57
2022/03/16 06:19:49;;;;;;;26.27;17.77;;;8.90;1.00;;;;;;5072615;28;20183;-58
2022/03/16 06:22:14;;;;;;;22.50;15.37;;;8.90;1.00;;;;;;5054494;28;20179;-59
2022/03/16 06:24:40;;;;;;;24.90;17.53;;;8.80;1.00;;;;;;5072667;28;20245;-59
2022/03/16 06:27:06;;;;;;;26.20;18.60;;;9.00;1.00;;;;;;5072880;28;20235;-59
2022/03/16 06:29:31;;;;;;;24.30;17.53;;;8.90;1.00;;;;;;5072577;28;20186;-61
2022/03/16 06:31:57;;;;;;;25.10;16.53;;;9.00;1.00;;;;;;5072349;28;20179;-59
2022/03/16 06:34:22;;;;;;;25.13;17.10;;;9.00;1.00;;;;;;5072402;28;20231;-59
2022/03/16 06:36:48;;;;;;;29.53;17.87;;;9.10;1.00;;;;;;5071968;28;20250;-60
2022/03/16 06:39:14;;;;;;;25.97;17.10;;;9.20;1.00;;;;;;5072385;28;20175;-60
2022/03/16 06:41:39;;;;;;;30.50;17.53;;;9.20;1.00;;;;;;5072323;28;20175;-60
2022/03/16 06:44:05;;;;;;;22.70;16.47;;;9.30;1.00;;;;;;5071308;28;20266;-58
2022/03/16 06:46:31;;;;;;;28.00;17.03;;;9.40;1.00;;;;;;5072838;28;20548;-60
2022/03/16 06:48:57;;;;;;;24.00;16.93;;;;;;;;;;5071645;28;20179;-59
2022/03/16 06:51:22;;;;;;;25.93;18.37;;;9.50;1.00;;;;;;5072317;28;20702;-59
2022/03/16 06:53:48;;;;;;;22.70;16.60;;;9.60;1.00;;;;;;5072795;28;20438;-60
2022/03/16 06:56:14;;;;;;;23.57;16.57;;;9.70;1.00;;;;;;5071126;28;20229;-59
2022/03/16 06:58:39;;;;;;;21.43;15.70;;;9.80;1.00;;;;;;5072161;28;20803;-60
2022/03/16 07:01:06;;;;;;;25.10;16.80;;;9.80;1.00;;;;;;5071674;28;20675;-58
2022/03/16 07:03:32;;;;;;;21.40;16.03;;;9.90;1.00;;;;;;5072542;28;20253;-59
2022/03/16 07:05:57;;;;;;;23.33;16.80;;;10.00;1.00;;;;;;5071776;28;20464;-60
2022/03/16 07:08:23;;;;;;;25.13;19.30;;;10.00;1.00;;;;;;5071530;28;20195;-60
2022/03/16 07:10:48;;;;;;;22.57;16.73;;;10.00;1.00;;;;;;5070206;28;20190;-60
2022/03/16 07:13:14;;;;;;;26.47;17.70;;;9.90;1.00;;;;;;5070084;28;20187;-60
2022/03/16 07:15:42;;;;;;;20.90;15.70;;;10.00;1.00;;;;;;5069220;28;20644;-59
2022/03/16 07:18:08;;;;;;;26.70;18.30;;;9.90;1.00;;;;;;5070877;28;20660;-60
2022/03/16 07:20:34;;;;;;;23.40;17.60;;;10.00;1.00;;;;;;5067563;28;20527;-60
2022/03/16 07:23:03;;;;;;;27.43;16.77;;;10.00;1.00;;;;;;5071899;28;20524;-60
2022/03/16 07:25:29;;;;;;;29.37;18.37;;;10.20;1.00;;;;;;5071044;28;20719;-59
2022/03/16 07:27:54;;;;;;;23.20;16.97;;;10.10;1.00;;;;;;5070285;28;20442;-59
2022/03/16 07:30:20;;;;;;;25.80;18.07;;;10.10;1.00;;;;;;5052099;28;20206;-60
2022/03/16 07:32:46;;;;;;;24.90;18.13;;;10.10;1.00;;;;;;5069708;28;20179;-60
2022/03/16 07:35:12;;;;;;;27.30;16.90;;;;;;;;;;5070847;28;20469;-60
2022/03/16 07:37:39;;;;;;;24.93;16.37;;;10.40;1.00;;;;;;5071463;28;20915;-60
2022/03/16 07:40:06;;;;;;;24.90;16.73;;;10.60;1.00;;;;;;5071501;28;20472;-61
2022/03/16 07:42:31;;;;;;;22.77;17.53;;;10.80;1.00;;;;;;5069823;28;20440;-59
2022/03/16 07:44:58;;;;;;;21.40;15.43;;;10.80;1.00;;;;;;5071187;28;20453;-59
2022/03/16 07:47:27;;;;;;;19.90;14.60;;;11.20;1.00;;;;;;5068352;28;20211;-60
2022/03/16 07:49:53;;;;;;;22.73;15.90;;;11.20;1.00;;;;;;5070977;28;20445;-59
2022/03/16 07:52:22;;;;;;;23.80;17.70;;;11.10;1.00;;;;;;5071945;28;20472;-59
2022/03/16 07:54:48;;;;;;;23.73;16.10;;;11.10;1.00;;;;;;5070260;28;20517;-59
2022/03/16 07:57:14;;;;;;;21.10;16.23;;;;;;;;;;5071879;28;20434;-59
2022/03/16 07:59:39;;;;;;;22.53;16.50;;;11.00;1.00;;;;;;5070366;28;20257;-58
2022/03/16 08:02:05;;;;;;;20.77;15.93;;;11.00;1.00;;;;;;5070680;28;20476;-59
2022/03/16 08:04:30;;;;;;;23.93;16.17;;;11.30;1.00;;;;;;5070872;28;20875;-58
2022/03/16 08:06:56;;;;;;;25.87;17.87;;;11.50;1.00;;;;;;5071399;28;20236;-59
2022/03/16 08:09:21;;;;;;;29.13;17.00;;;11.50;1.00;;;;;;5070679;28;20252;-59
2022/03/16 08:11:47;;;;;;;23.63;17.20;;;11.50;1.00;;;;;;5070435;28;20536;-60
2022/03/16 08:14:12;;;;;;;23.17;17.30;;;11.60;1.00;;;;;;5069373;28;20195;-59
2022/03/16 08:16:38;;;;;;;20.03;16.67;;;11.60;1.00;;;;;;5070974;28;20187;-59
2022/03/16 08:19:04;;;;;;;21.63;17.17;;;11.80;1.00;;;;;;5070911;28;20521;-59
2022/03/16 08:21:30;;;;;;;22.43;17.47;;;12.00;1.00;;;;;;5071253;28;20456;-58
2022/03/16 08:23:55;;;;;;;22.10;15.53;;;12.20;1.00;;;;;;5069701;28;20210;-60
2022/03/16 08:26:21;;;;;;;23.90;16.47;;;12.20;1.00;;;;;;5070475;28;20728;-59
2022/03/16 08:28:47;;;;;;;20.63;15.93;;;12.20;1.00;;;;;;5069191;28;20588;-59
2022/03/16 08:31:14;;;;;;;18.73;15.43;;;;;;;;;;5068763;28;20522;-60
2022/03/16 08:33:41;;;;;;;21.40;16.70;;;12.00;1.00;;;;;;5070700;28;20174;-59
2022/03/16 08:36:07;;;;;;;21.37;16.80;;;11.90;1.00;;;;;;5069097;28;20503;-59
2022/03/16 08:38:36;;;;;;;26.40;18.83;;;11.90;1.00;;;;;;5066697;28;20448;-61
2022/03/16 08:41:06;;;;;;;22.67;17.10;;;12.00;1.00;;;;;;5067109;28;20438;-59
2022/03/16 08:43:33;;;;;;;24.17;17.93;;;12.00;1.00;;;;;;5070897;28;20977;-60
2022/03/16 08:45:59;;;;;;;22.80;16.43;;;12.00;1.00;;;;;;5069586;28;20453;-59
2022/03/16 08:48:25;;;;;;;23.10;16.70;;;14.90;1.00;;;;;;5071114;28;20503;-61
2022/03/16 08:50:53;;;;;;;21.70;16.90;;;12.00;1.00;;;;;;5069015;28;20176;-60
2022/03/16 08:53:19;;;;;;;27.20;18.70;;;12.50;1.00;;;;;;5068731;28;20499;-60
2022/03/16 08:55:45;;;;;;;24.30;17.33;;;12.80;1.00;;;;;;5070173;28;20465;-61
2022/03/16 08:58:14;;;;;;;21.20;17.03;;;13.10;1.00;;;;;;5070598;28;20184;-59
2022/03/16 09:00:41;;;;;;;21.50;17.40;;;13.10;1.00;;;;;;5071247;28;20330;-60
2022/03/16 09:03:06;;;;;;;24.63;18.40;;;13.50;1.00;;;;;;5070494;28;20469;-59
2022/03/16 09:05:32;;;;;;;23.40;17.10;;;13.80;1.00;;;;;;5070383;28;20449;-59
2022/03/16 09:07:57;;;;;;;20.80;16.60;;;13.80;1.00;;;;;;5070462;28;20201;-59
2022/03/16 09:10:23;;;;;;;23.97;18.33;;;14.10;1.00;;;;;;5070709;28;20190;-60
2022/03/16 09:12:49;;;;;;;26.33;19.17;;;14.40;1.00;;;;;;5070824;28;20187;-59
2022/03/16 09:15:14;;;;;;;23.30;18.70;;;14.70;1.00;;;;;;5070353;28;20202;-60
2022/03/16 09:17:40;;;;;;;26.10;18.83;;;14.70;1.00;;;;;;5070998;28;20183;-59
2022/03/16 09:20:06;;;;;;;23.47;19.53;;;15.00;1.00;;;;;;5070407;28;20229;-60
2022/03/16 09:22:32;;;;;;;26.60;20.20;;;15.00;1.00;;;;;;5070358;28;20194;-60
2022/03/16 09:24:58;;;;;;;21.20;16.67;;;15.40;1.00;;;;;;5070095;28;20811;-59
2022/03/16 09:27:24;;;;;;;21.43;16.30;;;;;;;;;;5052529;28;20469;-60
2022/03/16 09:29:50;;;;;;;20.90;16.63;;;14.90;1.00;;;;;;5070205;28;20285;-59
2022/03/16 09:32:16;;;;;;;20.40;17.80;;;14.60;1.00;;;;;;5069873;28;20502;-61
2022/03/16 09:34:42;;;;;;;21.80;17.03;;;13.80;1.00;;;;;;5070587;28;20219;-60
2022/03/16 09:37:09;;;;;;;23.00;18.63;;;13.30;1.00;;;;;;5069773;28;20442;-60
2022/03/16 09:39:36;;;;;;;22.03;18.23;;;13.20;1.00;;;;;;5070220;28;20511;-60
2022/03/16 09:42:03;;;;;;;21.70;17.43;;;13.00;1.00;;;;;;5070018;28;20440;-59
2022/03/16 09:44:32;;;;;;;19.53;16.53;;;12.90;1.00;;;;;;5069554;28;20446;-58
2022/03/16 09:46:59;;;;;;;22.77;18.40;;;13.20;1.00;;;;;;5069900;28;20489;-60
2022/03/16 09:49:28;;;;;;;28.60;20.30;;;13.10;1.00;;;;;;5070116;28;20432;-60
2022/03/16 09:51:54;;;;;;;26.23;18.40;;;13.20;1.00;;;;;;5070262;28;20801;-60
2022/03/16 09:54:21;;;;;;;28.40;21.80;;;12.70;1.00;;;;;;5069790;28;20449;-59
2022/03/16 09:56:47;;;;;;;25.80;19.87;;;12.80;1.00;;;;;;5069937;28;20433;-58
2022/03/16 09:59:16;;;;;;;26.93;19.97;;;12.90;1.00;;;;;;5069723;28;20441;-60
2022/03/16 10:01:43;;;;;;;25.10;19.13;;;13.00;1.00;;;;;;5055834;28;20461;-60
2022/03/16 10:04:09;;;;;;;24.70;19.60;;;12.90;1.00;;;;;;5070294;28;20464;-58
2022/03/16 10:06:36;;;;;;;26.73;20.17;;;12.90;1.00;;;;;;5052043;28;20442;-59
2022/03/16 10:15:18;;;;;;;26.00;20.00;;;12.90;1.00;;;;;;5069609;28;21003;-59
2022/03/16 10:17:49;;;;;;;25.17;19.97;;;13.60;1.00;;;;;;5069720;28;20442;-61
2022/03/16 10:20:21;;;;;;;25.33;18.50;;;13.60;1.00;;;;;;5069738;28;20453;-59
2022/03/16 10:22:57;;;;;;;25.33;18.20;;;14.30;1.00;;;;;;5069730;28;20583;-59
2022/03/16 10:25:24;;;;;;;24.03;18.47;;;;;;;;;;5069713;28;20437;-60
2022/03/16 10:27:49;;;;;;;24.10;20.07;;;15.10;1.00;;;;;;5051512;28;21346;-60
2022/03/16 10:30:15;;;;;;;24.97;20.33;;;15.30;1.00;;;;;;5071510;28;21295;-59
2022/03/16 10:32:54;;;;;;;21.37;18.20;;;15.30;1.00;;;;;;5069378;28;20195;-60
2022/03/16 10:35:20;;;;;;;22.83;18.20;;;15.70;1.00;;;;;;5069382;28;20217;-59
2022/03/16 10:37:47;;;;;;;20.93;16.60;;;15.40;1.00;;;;;;5069364;28;20441;-59
2022/03/16 10:40:26;;;;;;;24.17;18.10;;;15.30;1.00;;;;;;5069207;28;20426;-60
2022/03/16 10:48:25;;;;;;;24.00;19.33;;;15.20;1.00;;;;;;5071202;28;20460;-59
2022/03/16 10:50:56;;;;;;;24.77;20.10;;;15.20;1.00;;;;;;5073004;28;20449;-58
2022/03/16 10:53:28;;;;;;;30.90;21.30;;;15.30;1.00;;;;;;5074452;28;20449;-60
2022/03/16 10:56:01;;;;;;;24.30;19.70;;;14.70;1.00;;;;;;5072817;28;20934;-59
2022/03/16 10:58:27;;;;;;;23.37;19.60;;;14.70;1.00;;;;;;5072629;28;20436;-60
2022/03/16 11:00:53;;;;;;;25.57;19.47;;;14.30;1.00;;;;;;5072488;28;20469;-58
2022/03/16 11:03:23;;;;;;;23.50;19.77;;;14.30;1.00;;;;;;5072353;28;20496;-59
2022/03/16 11:05:49;;;;;;;23.63;19.07;;;14.50;1.00;;;;;;5072684;28;20437;-59
2022/03/16 11:08:15;;;;;;;23.63;18.90;;;14.40;1.00;;;;;;5073722;28;20445;-58
2022/03/16 11:10:42;;;;;;;23.80;18.50;;;14.40;1.00;;;;;;5072441;28;20884;-59
2022/03/16 11:16:00;;;;;;;20.00;15.10;;;14.50;1.00;;;;;;5072294;28;20488;-59
2022/03/16 11:18:26;;;;;;;18.37;15.13;;;15.00;1.00;;;;;;5072555;28;20899;-60
2022/03/16 11:20:58;;;;;;;16.20;13.77;;;;;;;;;;5072164;28;20433;-60
2022/03/16 11:27:00;;;;;;;19.07;15.10;;;15.90;1.00;;;;;;5072304;28;20535;-60
2022/03/16 11:29:44;;;;;;;15.60;13.10;;;15.70;1.00;;;;;;5072263;28;20502;-59
2022/03/16 11:32:13;;;;;;;13.03;11.60;;;15.60;1.00;;;;;;5071908;28;20510;-59
2022/03/16 11:34:39;;;;;;;16.00;13.70;;;15.10;1.00;;;;;;5072013;28;20466;-58
2022/03/16 11:37:10;;;;;;;18.57;13.77;;;15.10;1.00;;;;;;5054689;28;20509;-58
2022/03/16 11:39:44;;;;;;;17.00;14.20;;;14.60;1.00;;;;;;5071912;28;20708;-59
2022/03/16 11:42:11;;;;;;;18.90;14.70;;;14.30;1.00;;;;;;5071835;28;20429;-59
2022/03/16 11:44:38;;;;;;;16.20;13.80;;;14.40;1.00;;;;;;5072121;28;20441;-59
2022/03/16 11:47:09;;;;;;;15.53;13.80;;;14.40;1.00;;;;;;5071897;28;20488;-59
2022/03/16 11:49:41;;;;;;;20.27;15.37;;;14.60;1.00;;;;;;5072118;28;20938;-58
2022/03/16 11:52:09;;;;;;;21.07;15.83;;;15.20;1.00;;;;;;5071811;28;20938;-60
2022/03/16 11:54:42;;;;;;;15.80;14.13;;;15.30;1.00;;;;;;5071812;28;20584;-59
2022/03/16 11:57:09;;;;;;;17.20;14.20;;;15.90;1.00;;;;;;5071547;28;20856;-60
2022/03/16 11:59:40;;;;;;;17.23;14.60;;;16.60;1.00;;;;;;5071606;28;20441;-58
2022/03/16 12:02:10;;;;;;;19.00;14.73;;;16.60;1.00;;;;;;5070092;28;20477;-59
2022/03/16 12:04:45;;;;;;;16.23;11.67;;;16.80;1.00;;;;;;5071502;28;20486;-61
2022/03/16 12:07:12;;;;;;;15.73;12.90;;;16.80;1.00;;;;;;5072019;28;20540;-61
2022/03/16 12:09:49;;;;;;;14.07;11.73;;;16.90;1.00;;;;;;5071499;28;20449;-59
2022/03/16 12:15:36;;;;;;;11.67;10.47;;;16.80;1.00;;;;;;5071163;28;20553;-60
2022/03/16 12:18:02;;;;;;;15.03;11.70;;;16.90;1.00;;;;;;5071451;28;20442;-60
2022/03/16 12:20:30;;;;;;;12.60;10.10;;;16.90;1.00;;;;;;5070949;28;20437;-61
2022/03/16 12:23:05;;;;;;;11.87;10.67;;;17.50;1.00;;;;;;5071294;28;20188;-59
2022/03/16 12:25:32;;;;;;;11.60;10.07;;;17.50;1.00;;;;;;5071091;28;20776;-59
2022/03/16 12:30:54;;;;;;;12.17;10.83;;;17.90;1.00;;;;;;5071591;28;20437;-59
2022/03/16 12:33:23;;;;;;;11.40;10.10;;;17.80;1.00;;;;;;5071053;28;20543;-59
2022/03/16 12:35:50;;;;;;;13.57;11.27;;;17.80;1.00;;;;;;5071029;28;20484;-59
2022/03/16 12:38:16;;;;;;;11.40;9.23;;;17.70;1.00;;;;;;5070837;28;20741;-60
2022/03/16 12:43:28;;;;;;;11.00;9.93;;;17.50;1.00;;;;;;5071012;28;20429;-58
2022/03/16 12:46:23;;;;;;;12.80;9.97;;;17.70;1.00;;;;;;5072170;28;20456;-60
2022/03/16 12:48:54;;;;;;;15.07;12.93;;;17.60;1.00;;;;;;5070706;28;20466;-59
2022/03/16 12:51:39;;;;;;;14.40;11.90;;;17.20;1.00;;;;;;5070573;28;20441;-59
2022/03/16 12:54:06;;;;;;;14.80;13.30;;;17.10;1.00;;;;;;5070306;28;20438;-60
2022/03/16 12:56:42;;;;;;;16.03;13.43;;;16.90;1.00;;;;;;5069977;28;20519;-60
2022/03/16 12:59:08;;;;;;;14.93;13.33;;;16.70;1.00;;;;;;5070569;28;20433;-59
2022/03/16 13:01:34;;;;;;;16.00;13.73;;;16.30;1.00;;;;;;5070574;28;20603;-59
2022/03/16 13:04:03;;;;;;;14.73;13.23;;;16.30;1.00;;;;;;5070528;28;20532;-60
2022/03/16 13:06:33;;;;;;;13.13;11.70;;;16.50;1.00;;;;;;5071321;28;20183;-59
2022/03/16 13:09:09;;;;;;;14.13;12.63;;;16.60;1.00;;;;;;5072955;28;20444;-59
2022/03/16 13:11:39;;;;;;;13.73;11.90;;;16.70;1.00;;;;;;5070101;28;20523;-60